X  Zamknij Lotniskowe dane METAR     LIRA Ciampino–G. B. Pastine International Airport
Temperatura
1°C Temperatura
-1°C Punkt rosy
87% Wilgotność



Wiatr
2 M/S
5 MPH
8 KM/H
4 KTS



80°
E
Warunki bieżące

Czyste Czyste
Ciśnienie 1020.92 (hPa) - 30.15 (inHg)
Widoczność 6.2 (mil) - 10 (km)
Lotnisko
Kod lotniska LIRA

Położenie: Ciampino–G. B. Pastine International Airport
Odległość: 48 (km)

Metar:
LIRA 300720Z 08004KT 050V110 CAVOK 01/M01 Q1021

Czas: 30-01-2023 08:20 CET